sensor_id;sensor_type;location;lat;lon;timestamp;pressure;altitude;pressure_sealevel;temperature;humidity
20021;BME280;10171;42.694;23.318;2023-06-14T00:08:56;94753.72;;;18.36;nan
20021;BME280;10171;42.694;23.318;2023-06-14T00:13:47;94748.88;;;18.41;nan
20021;BME280;10171;42.694;23.318;2023-06-14T00:18:37;94747.59;;;18.45;nan
20021;BME280;10171;42.694;23.318;2023-06-14T00:23:29;94751.66;;;18.40;nan
20021;BME280;10171;42.694;23.318;2023-06-14T00:28:20;94747.53;;;18.30;nan
20021;BME280;10171;42.694;23.318;2023-06-14T00:30:46;94744.19;;;18.37;nan
20021;BME280;10171;42.694;23.318;2023-06-14T00:33:12;94745.13;;;18.28;nan
20021;BME280;10171;42.694;23.318;2023-06-14T00:45:19;94737.84;;;18.32;nan
20021;BME280;10171;42.694;23.318;2023-06-14T00:47:45;94739.47;;;18.33;nan
20021;BME280;10171;42.694;23.318;2023-06-14T00:50:11;94735.75;;;18.27;nan
20021;BME280;10171;42.694;23.318;2023-06-14T01:04:48;94732.88;;;18.38;nan
20021;BME280;10171;42.694;23.318;2023-06-14T01:17:50;94726.88;;;18.37;nan
20021;BME280;10171;42.694;23.318;2023-06-14T01:25:26;94717.72;;;18.18;nan
20021;BME280;10171;42.694;23.318;2023-06-14T01:35:21;94722.41;;;18.14;nan
20021;BME280;10171;42.694;23.318;2023-06-14T01:37:48;94727.59;;;18.14;nan
20021;BME280;10171;42.694;23.318;2023-06-14T01:40:14;94724.13;;;18.06;nan
20021;BME280;10171;42.694;23.318;2023-06-14T01:42:40;94729.97;;;18.08;nan
20021;BME280;10171;42.694;23.318;2023-06-14T01:45:07;94725.28;;;18.03;nan
20021;BME280;10171;42.694;23.318;2023-06-14T01:47:34;94731.13;;;18.13;nan
20021;BME280;10171;42.694;23.318;2023-06-14T01:50:02;94729.06;;;18.25;nan
20021;BME280;10171;42.694;23.318;2023-06-14T01:52:27;94732.84;;;18.05;nan
20021;BME280;10171;42.694;23.318;2023-06-14T01:54:53;94726.81;;;17.88;nan
20021;BME280;10171;42.694;23.318;2023-06-14T01:57:18;94733.66;;;17.97;nan
20021;BME280;10171;42.694;23.318;2023-06-14T01:59:45;94739.25;;;17.93;nan
20021;BME280;10171;42.694;23.318;2023-06-14T02:02:14;94744.78;;;17.98;nan
20021;BME280;10171;42.694;23.318;2023-06-14T02:04:40;94737.94;;;17.89;nan
20021;BME280;10171;42.694;23.318;2023-06-14T02:07:06;94743.28;;;17.87;nan
20021;BME280;10171;42.694;23.318;2023-06-14T02:09:33;94753.34;;;17.98;nan
20021;BME280;10171;42.694;23.318;2023-06-14T02:11:58;94749.59;;;17.93;nan
20021;BME280;10171;42.694;23.318;2023-06-14T02:14:24;94753.09;;;17.84;nan
20021;BME280;10171;42.694;23.318;2023-06-14T02:16:49;94761.50;;;17.86;nan
20021;BME280;10171;42.694;23.318;2023-06-14T02:19:18;94756.59;;;17.75;nan
20021;BME280;10171;42.694;23.318;2023-06-14T02:21:44;94761.16;;;17.81;nan
20021;BME280;10171;42.694;23.318;2023-06-14T02:24:10;94763.00;;;17.88;nan
20021;BME280;10171;42.694;23.318;2023-06-14T02:26:36;94763.09;;;18.04;nan
20021;BME280;10171;42.694;23.318;2023-06-14T02:29:04;94759.53;;;18.05;nan
20021;BME280;10171;42.694;23.318;2023-06-14T02:31:31;94766.94;;;18.00;nan
20021;BME280;10171;42.694;23.318;2023-06-14T02:33:56;94769.41;;;18.10;nan
20021;BME280;10171;42.694;23.318;2023-06-14T02:36:22;94767.31;;;18.13;nan
20021;BME280;10171;42.694;23.318;2023-06-14T02:38:47;94760.31;;;18.06;nan
20021;BME280;10171;42.694;23.318;2023-06-14T02:41:13;94762.06;;;17.97;nan
20021;BME280;10171;42.694;23.318;2023-06-14T02:43:38;94754.28;;;17.89;nan
20021;BME280;10171;42.694;23.318;2023-06-14T02:46:04;94754.00;;;18.00;nan
20021;BME280;10171;42.694;23.318;2023-06-14T02:48:30;94754.50;;;18.04;nan
20021;BME280;10171;42.694;23.318;2023-06-14T02:50:55;94753.06;;;18.01;nan
20021;BME280;10171;42.694;23.318;2023-06-14T02:53:22;94764.25;;;17.84;nan
20021;BME280;10171;42.694;23.318;2023-06-14T02:55:47;94745.16;;;17.77;nan
20021;BME280;10171;42.694;23.318;2023-06-14T02:58:13;94745.78;;;17.71;nan
20021;BME280;10171;42.694;23.318;2023-06-14T03:00:39;94769.38;;;17.76;nan
20021;BME280;10171;42.694;23.318;2023-06-14T03:03:06;94763.25;;;17.77;nan
20021;BME280;10171;42.694;23.318;2023-06-14T03:05:41;94763.91;;;17.79;nan
20021;BME280;10171;42.694;23.318;2023-06-14T03:08:11;94761.25;;;17.71;nan
20021;BME280;10171;42.694;23.318;2023-06-14T03:10:42;94772.25;;;17.73;nan
20021;BME280;10171;42.694;23.318;2023-06-14T03:13:09;94774.44;;;17.60;nan
20021;BME280;10171;42.694;23.318;2023-06-14T03:15:36;94766.31;;;17.55;nan
20021;BME280;10171;42.694;23.318;2023-06-14T03:18:02;94766.97;;;17.57;nan
20021;BME280;10171;42.694;23.318;2023-06-14T03:20:29;94779.91;;;17.57;nan
20021;BME280;10171;42.694;23.318;2023-06-14T03:22:55;94773.41;;;17.53;nan
20021;BME280;10171;42.694;23.318;2023-06-14T03:25:20;94768.59;;;17.58;nan
20021;BME280;10171;42.694;23.318;2023-06-14T03:27:47;94780.91;;;17.64;nan
20021;BME280;10171;42.694;23.318;2023-06-14T03:30:13;94778.63;;;17.61;nan
20021;BME280;10171;42.694;23.318;2023-06-14T03:32:38;94781.88;;;17.63;nan
20021;BME280;10171;42.694;23.318;2023-06-14T03:35:04;94772.19;;;17.65;nan
20021;BME280;10171;42.694;23.318;2023-06-14T03:37:30;94776.66;;;17.55;nan
20021;BME280;10171;42.694;23.318;2023-06-14T03:39:55;94790.03;;;17.76;nan
20021;BME280;10171;42.694;23.318;2023-06-14T03:42:21;94775.94;;;17.71;nan
20021;BME280;10171;42.694;23.318;2023-06-14T03:44:46;94791.59;;;17.69;nan
20021;BME280;10171;42.694;23.318;2023-06-14T03:47:11;94783.38;;;17.74;nan
20021;BME280;10171;42.694;23.318;2023-06-14T03:49:37;94788.97;;;17.87;nan
20021;BME280;10171;42.694;23.318;2023-06-14T03:52:03;94789.38;;;18.00;nan
20021;BME280;10171;42.694;23.318;2023-06-14T03:54:29;94793.28;;;18.04;nan
20021;BME280;10171;42.694;23.318;2023-06-14T03:56:54;94784.69;;;17.95;nan
20021;BME280;10171;42.694;23.318;2023-06-14T03:59:22;94784.69;;;17.95;nan
20021;BME280;10171;42.694;23.318;2023-06-14T04:01:47;94786.91;;;17.90;nan
20021;BME280;10171;42.694;23.318;2023-06-14T04:04:14;94786.84;;;17.82;nan
20021;BME280;10171;42.694;23.318;2023-06-14T04:06:41;94789.16;;;17.68;nan
20021;BME280;10171;42.694;23.318;2023-06-14T04:09:08;94794.97;;;17.87;nan
20021;BME280;10171;42.694;23.318;2023-06-14T04:11:34;94789.72;;;18.05;nan
20021;BME280;10171;42.694;23.318;2023-06-14T04:13:59;94800.28;;;18.11;nan
20021;BME280;10171;42.694;23.318;2023-06-14T04:16:25;94793.84;;;18.15;nan
20021;BME280;10171;42.694;23.318;2023-06-14T04:18:50;94794.28;;;18.11;nan
20021;BME280;10171;42.694;23.318;2023-06-14T04:21:18;94783.31;;;18.17;nan
20021;BME280;10171;42.694;23.318;2023-06-14T04:23:43;94795.16;;;18.19;nan
20021;BME280;10171;42.694;23.318;2023-06-14T04:26:09;94793.88;;;18.23;nan
20021;BME280;10171;42.694;23.318;2023-06-14T04:28:36;94790.78;;;18.20;nan
20021;BME280;10171;42.694;23.318;2023-06-14T04:31:08;94795.50;;;18.24;nan
20021;BME280;10171;42.694;23.318;2023-06-14T04:33:36;94796.13;;;18.18;nan
20021;BME280;10171;42.694;23.318;2023-06-14T04:36:09;94789.81;;;18.21;nan
20021;BME280;10171;42.694;23.318;2023-06-14T04:38:34;94789.31;;;18.17;nan
20021;BME280;10171;42.694;23.318;2023-06-14T04:41:00;94788.31;;;18.10;nan
20021;BME280;10171;42.694;23.318;2023-06-14T04:43:27;94796.41;;;18.15;nan
20021;BME280;10171;42.694;23.318;2023-06-14T04:45:53;94793.88;;;18.23;nan
20021;BME280;10171;42.694;23.318;2023-06-14T04:48:21;94790.31;;;18.24;nan
20021;BME280;10171;42.694;23.318;2023-06-14T04:50:47;94795.63;;;18.23;nan
20021;BME280;10171;42.694;23.318;2023-06-14T04:53:13;94796.84;;;18.28;nan
20021;BME280;10171;42.694;23.318;2023-06-14T04:55:38;94804.94;;;18.33;nan
20021;BME280;10171;42.694;23.318;2023-06-14T04:58:04;94803.81;;;18.35;nan
20021;BME280;10171;42.694;23.318;2023-06-14T05:00:30;94801.13;;;18.45;nan
20021;BME280;10171;42.694;23.318;2023-06-14T05:02:55;94808.72;;;18.46;nan
20021;BME280;10171;42.694;23.318;2023-06-14T05:05:22;94813.56;;;18.49;nan
20021;BME280;10171;42.694;23.318;2023-06-14T05:07:48;94816.06;;;18.59;nan
20021;BME280;10171;42.694;23.318;2023-06-14T05:10:13;94811.53;;;18.61;nan
20021;BME280;10171;42.694;23.318;2023-06-14T05:12:38;94815.41;;;18.57;nan
20021;BME280;10171;42.694;23.318;2023-06-14T05:15:04;94810.22;;;18.57;nan
20021;BME280;10171;42.694;23.318;2023-06-14T05:17:30;94820.97;;;18.70;nan
20021;BME280;10171;42.694;23.318;2023-06-14T05:19:55;94821.94;;;18.77;nan
20021;BME280;10171;42.694;23.318;2023-06-14T05:22:21;94812.22;;;18.71;nan
20021;BME280;10171;42.694;23.318;2023-06-14T05:24:47;94817.09;;;18.74;nan
20021;BME280;10171;42.694;23.318;2023-06-14T05:27:13;94831.38;;;18.86;nan
20021;BME280;10171;42.694;23.318;2023-06-14T05:29:39;94831.69;;;18.91;nan
20021;BME280;10171;42.694;23.318;2023-06-14T05:32:05;94836.63;;;19.10;nan
20021;BME280;10171;42.694;23.318;2023-06-14T05:34:31;94845.72;;;19.22;nan
20021;BME280;10171;42.694;23.318;2023-06-14T05:36:56;94836.16;;;19.22;nan
20021;BME280;10171;42.694;23.318;2023-06-14T05:39:22;94841.34;;;19.22;nan
20021;BME280;10171;42.694;23.318;2023-06-14T05:41:49;94840.03;;;19.18;nan
20021;BME280;10171;42.694;23.318;2023-06-14T05:44:14;94830.84;;;19.16;nan
20021;BME280;10171;42.694;23.318;2023-06-14T05:46:40;94841.03;;;19.25;nan
20021;BME280;10171;42.694;23.318;2023-06-14T05:49:06;94844.13;;;19.21;nan
20021;BME280;10171;42.694;23.318;2023-06-14T05:51:31;94848.97;;;19.24;nan
20021;BME280;10171;42.694;23.318;2023-06-14T05:53:57;94845.72;;;19.22;nan
20021;BME280;10171;42.694;23.318;2023-06-14T05:56:22;94842.81;;;19.17;nan
20021;BME280;10171;42.694;23.318;2023-06-14T05:58:47;94845.16;;;19.02;nan
20021;BME280;10171;42.694;23.318;2023-06-14T06:01:14;94850.19;;;19.04;nan
20021;BME280;10171;42.694;23.318;2023-06-14T06:03:39;94856.34;;;19.03;nan
20021;BME280;10171;42.694;23.318;2023-06-14T06:06:05;94844.34;;;19.02;nan
20021;BME280;10171;42.694;23.318;2023-06-14T06:08:30;94851.56;;;19.16;nan
20021;BME280;10171;42.694;23.318;2023-06-14T06:10:56;94847.28;;;19.07;nan
20021;BME280;10171;42.694;23.318;2023-06-14T06:13:22;94852.22;;;19.26;nan
20021;BME280;10171;42.694;23.318;2023-06-14T06:15:47;94851.00;;;19.12;nan
20021;BME280;10171;42.694;23.318;2023-06-14T06:18:13;94859.59;;;19.13;nan
20021;BME280;10171;42.694;23.318;2023-06-14T06:20:38;94864.31;;;19.17;nan
20021;BME280;10171;42.694;23.318;2023-06-14T06:23:04;94865.56;;;19.05;nan
20021;BME280;10171;42.694;23.318;2023-06-14T06:25:29;94866.13;;;19.17;nan
20021;BME280;10171;42.694;23.318;2023-06-14T06:27:57;94852.03;;;19.19;nan
20021;BME280;10171;42.694;23.318;2023-06-14T06:30:23;94865.66;;;19.29;nan
20021;BME280;10171;42.694;23.318;2023-06-14T06:32:49;94861.78;;;19.33;nan
20021;BME280;10171;42.694;23.318;2023-06-14T06:35:14;94870.69;;;19.31;nan
20021;BME280;10171;42.694;23.318;2023-06-14T06:37:41;94864.56;;;19.40;nan
20021;BME280;10171;42.694;23.318;2023-06-14T06:40:07;94859.53;;;19.46;nan
20021;BME280;10171;42.694;23.318;2023-06-14T06:42:34;94865.19;;;19.42;nan
20021;BME280;10171;42.694;23.318;2023-06-14T06:44:59;94862.63;;;19.50;nan
20021;BME280;10171;42.694;23.318;2023-06-14T06:47:25;94849.66;;;19.42;nan
20021;BME280;10171;42.694;23.318;2023-06-14T06:49:50;94863.75;;;19.47;nan
20021;BME280;10171;42.694;23.318;2023-06-14T06:52:16;94861.00;;;19.41;nan
20021;BME280;10171;42.694;23.318;2023-06-14T06:54:41;94855.13;;;19.23;nan
20021;BME280;10171;42.694;23.318;2023-06-14T06:57:07;94862.59;;;19.34;nan
20021;BME280;10171;42.694;23.318;2023-06-14T06:59:33;94860.16;;;19.40;nan
20021;BME280;10171;42.694;23.318;2023-06-14T07:01:59;94868.47;;;19.52;nan
20021;BME280;10171;42.694;23.318;2023-06-14T07:04:24;94864.06;;;19.60;nan
20021;BME280;10171;42.694;23.318;2023-06-14T07:06:50;94858.09;;;19.67;nan
20021;BME280;10171;42.694;23.318;2023-06-14T07:09:15;94872.03;;;19.82;nan
20021;BME280;10171;42.694;23.318;2023-06-14T07:11:43;94865.38;;;19.88;nan
20021;BME280;10171;42.694;23.318;2023-06-14T07:14:09;94869.59;;;19.97;nan
20021;BME280;10171;42.694;23.318;2023-06-14T07:16:34;94863.63;;;19.96;nan
20021;BME280;10171;42.694;23.318;2023-06-14T07:19:01;94855.69;;;20.06;nan
20021;BME280;10171;42.694;23.318;2023-06-14T07:21:27;94851.00;;;20.01;nan
20021;BME280;10171;42.694;23.318;2023-06-14T07:23:53;94856.19;;;20.09;nan
20021;BME280;10171;42.694;23.318;2023-06-14T07:26:19;94865.41;;;20.12;nan
20021;BME280;10171;42.694;23.318;2023-06-14T07:28:46;94858.09;;;20.31;nan
20021;BME280;10171;42.694;23.318;2023-06-14T07:31:12;94864.56;;;20.43;nan
20021;BME280;10171;42.694;23.318;2023-06-14T07:33:38;94854.25;;;20.66;nan
20021;BME280;10171;42.694;23.318;2023-06-14T07:36:03;94850.66;;;20.75;nan
20021;BME280;10171;42.694;23.318;2023-06-14T07:38:29;94849.34;;;20.87;nan
20021;BME280;10171;42.694;23.318;2023-06-14T07:40:55;94856.91;;;21.04;nan
20021;BME280;10171;42.694;23.318;2023-06-14T07:43:20;94852.75;;;20.95;nan
20021;BME280;10171;42.694;23.318;2023-06-14T07:45:45;94854.50;;;20.95;nan
20021;BME280;10171;42.694;23.318;2023-06-14T07:48:11;94857.31;;;20.85;nan
20021;BME280;10171;42.694;23.318;2023-06-14T07:50:36;94853.75;;;20.86;nan
20021;BME280;10171;42.694;23.318;2023-06-14T07:53:02;94864.13;;;20.86;nan
20021;BME280;10171;42.694;23.318;2023-06-14T07:55:27;94852.28;;;20.84;nan
20021;BME280;10171;42.694;23.318;2023-06-14T07:57:53;94864.69;;;21.12;nan
20021;BME280;10171;42.694;23.318;2023-06-14T08:00:20;94861.75;;;21.15;nan
20021;BME280;10171;42.694;23.318;2023-06-14T08:02:46;94866.75;;;21.16;nan
20021;BME280;10171;42.694;23.318;2023-06-14T08:05:12;94877.41;;;20.99;nan
20021;BME280;10171;42.694;23.318;2023-06-14T08:07:38;94878.00;;;21.09;nan
20021;BME280;10171;42.694;23.318;2023-06-14T08:10:07;94878.84;;;21.02;nan
20021;BME280;10171;42.694;23.318;2023-06-14T08:12:33;94881.63;;;21.00;nan
20021;BME280;10171;42.694;23.318;2023-06-14T08:14:59;94886.81;;;21.00;nan
20021;BME280;10171;42.694;23.318;2023-06-14T08:17:25;94886.81;;;21.00;nan
20021;BME280;10171;42.694;23.318;2023-06-14T08:19:50;94883.19;;;21.39;nan
20021;BME280;10171;42.694;23.318;2023-06-14T08:22:16;94881.53;;;21.46;nan
20021;BME280;10171;42.694;23.318;2023-06-14T08:24:41;94888.63;;;21.52;nan
20021;BME280;10171;42.694;23.318;2023-06-14T08:27:07;94885.28;;;21.44;nan
20021;BME280;10171;42.694;23.318;2023-06-14T08:29:33;94879.19;;;21.29;nan
20021;BME280;10171;42.694;23.318;2023-06-14T08:31:58;94881.06;;;21.12;nan
20021;BME280;10171;42.694;23.318;2023-06-14T08:34:24;94895.53;;;21.07;nan
20021;BME280;10171;42.694;23.318;2023-06-14T08:36:52;94895.16;;;21.18;nan
20021;BME280;10171;42.694;23.318;2023-06-14T08:39:17;94891.09;;;21.15;nan
20021;BME280;10171;42.694;23.318;2023-06-14T08:41:46;94887.34;;;21.26;nan
20021;BME280;10171;42.694;23.318;2023-06-14T08:44:14;94882.69;;;21.44;nan
20021;BME280;10171;42.694;23.318;2023-06-14T08:46:41;94886.38;;;21.49;nan
20021;BME280;10171;42.694;23.318;2023-06-14T08:49:08;94876.16;;;21.48;nan
20021;BME280;10171;42.694;23.318;2023-06-14T08:51:36;94858.81;;;21.40;nan
20021;BME280;10171;42.694;23.318;2023-06-14T08:54:02;94876.91;;;21.56;nan
20021;BME280;10171;42.694;23.318;2023-06-14T08:56:29;94872.22;;;21.60;nan
20021;BME280;10171;42.694;23.318;2023-06-14T08:58:56;94864.19;;;21.92;nan
20021;BME280;10171;42.694;23.318;2023-06-14T09:01:23;94879.19;;;22.04;nan
20021;BME280;10171;42.694;23.318;2023-06-14T09:03:50;94875.72;;;22.12;nan
20021;BME280;10171;42.694;23.318;2023-06-14T09:06:16;94866.53;;;22.24;nan
20021;BME280;10171;42.694;23.318;2023-06-14T09:08:46;94865.19;;;22.28;nan
20021;BME280;10171;42.694;23.318;2023-06-14T09:11:13;94865.47;;;22.33;nan
20021;BME280;10171;42.694;23.318;2023-06-14T09:13:40;94859.78;;;22.29;nan
20021;BME280;10171;42.694;23.318;2023-06-14T09:16:06;94857.25;;;22.07;nan
20021;BME280;10171;42.694;23.318;2023-06-14T09:18:40;94860.53;;;22.01;nan
20021;BME280;10171;42.694;23.318;2023-06-14T09:21:10;94857.25;;;22.07;nan
20021;BME280;10171;42.694;23.318;2023-06-14T09:23:40;94868.84;;;22.19;nan
20021;BME280;10171;42.694;23.318;2023-06-14T09:26:13;94862.91;;;22.47;nan
20021;BME280;10171;42.694;23.318;2023-06-14T09:28:46;94853.31;;;22.47;nan
20021;BME280;10171;42.694;23.318;2023-06-14T09:31:13;94853.66;;;22.59;nan
20021;BME280;10171;42.694;23.318;2023-06-14T09:33:38;94857.34;;;22.64;nan
20021;BME280;10171;42.694;23.318;2023-06-14T09:36:11;94852.66;;;22.60;nan
20021;BME280;10171;42.694;23.318;2023-06-14T09:38:40;94853.22;;;22.55;nan
20021;BME280;10171;42.694;23.318;2023-06-14T09:41:05;94853.31;;;22.47;nan
20021;BME280;10171;42.694;23.318;2023-06-14T09:43:32;94850.69;;;22.47;nan
20021;BME280;10171;42.694;23.318;2023-06-14T09:46:00;94845.56;;;22.54;nan
20021;BME280;10171;42.694;23.318;2023-06-14T09:48:26;94863.16;;;22.52;nan
20021;BME280;10171;42.694;23.318;2023-06-14T09:50:52;94849.25;;;22.74;nan
20021;BME280;10171;42.694;23.318;2023-06-14T09:53:21;94847.88;;;23.07;nan
20021;BME280;10171;42.694;23.318;2023-06-14T09:55:49;94839.25;;;23.21;nan
20021;BME280;10171;42.694;23.318;2023-06-14T09:58:16;94828.59;;;23.51;nan
20021;BME280;10171;42.694;23.318;2023-06-14T10:00:43;94830.75;;;23.48;nan
20021;BME280;10171;42.694;23.318;2023-06-14T10:05:35;94828.84;;;23.21;nan
20021;BME280;10171;42.694;23.318;2023-06-14T10:08:08;94831.19;;;23.16;nan
20021;BME280;10171;42.694;23.318;2023-06-14T10:10:34;94835.97;;;23.12;nan
20021;BME280;10171;42.694;23.318;2023-06-14T10:12:59;94826.16;;;23.00;nan
20021;BME280;10171;42.694;23.318;2023-06-14T10:15:37;94814.16;;;22.84;nan
20021;BME280;10171;42.694;23.318;2023-06-14T10:18:14;94821.59;;;22.87;nan
20021;BME280;10171;42.694;23.318;2023-06-14T10:21:05;94804.97;;;22.88;nan
20021;BME280;10171;42.694;23.318;2023-06-14T10:23:37;94806.59;;;22.89;nan
20021;BME280;10171;42.694;23.318;2023-06-14T10:26:06;94809.47;;;22.94;nan
20021;BME280;10171;42.694;23.318;2023-06-14T10:28:32;94810.63;;;22.92;nan
20021;BME280;10171;42.694;23.318;2023-06-14T10:31:11;94811.72;;;22.83;nan
20021;BME280;10171;42.694;23.318;2023-06-14T10:33:55;94807.31;;;22.69;nan
20021;BME280;10171;42.694;23.318;2023-06-14T10:36:25;94801.22;;;22.76;nan
20021;BME280;10171;42.694;23.318;2023-06-14T10:39:16;94806.50;;;23.33;nan
20021;BME280;10171;42.694;23.318;2023-06-14T10:41:50;94808.59;;;23.58;nan
20021;BME280;10171;42.694;23.318;2023-06-14T10:46:55;94805.72;;;23.32;nan
20021;BME280;10171;42.694;23.318;2023-06-14T10:49:42;94805.69;;;23.11;nan
20021;BME280;10171;42.694;23.318;2023-06-14T10:52:09;94798.22;;;23.08;nan
20021;BME280;10171;42.694;23.318;2023-06-14T10:55:01;94796.56;;;23.22;nan
20021;BME280;10171;42.694;23.318;2023-06-14T10:57:27;94794.84;;;23.50;nan
20021;BME280;10171;42.694;23.318;2023-06-14T10:59:53;94784.13;;;23.59;nan
20021;BME280;10171;42.694;23.318;2023-06-14T11:07:48;94773.44;;;23.75;nan
20021;BME280;10171;42.694;23.318;2023-06-14T11:10:36;94772.38;;;23.70;nan
20021;BME280;10171;42.694;23.318;2023-06-14T11:13:08;94771.72;;;23.82;nan
20021;BME280;10171;42.694;23.318;2023-06-14T11:15:35;94776.72;;;23.83;nan
20021;BME280;10171;42.694;23.318;2023-06-14T11:18:05;94764.50;;;23.63;nan
20021;BME280;10171;42.694;23.318;2023-06-14T11:20:33;94767.41;;;23.54;nan
20021;BME280;10171;42.694;23.318;2023-06-14T11:22:59;94770.50;;;23.84;nan
20021;BME280;10171;42.694;23.318;2023-06-14T11:25:25;94763.41;;;24.27;nan
20021;BME280;10171;42.694;23.318;2023-06-14T11:27:51;94754.81;;;24.67;nan
20021;BME280;10171;42.694;23.318;2023-06-14T11:30:17;94751.75;;;25.04;nan
20021;BME280;10171;42.694;23.318;2023-06-14T11:32:47;94759.59;;;25.04;nan
20021;BME280;10171;42.694;23.318;2023-06-14T11:35:13;94753.72;;;24.95;nan
20021;BME280;10171;42.694;23.318;2023-06-14T11:37:39;94746.75;;;25.15;nan
20021;BME280;10171;42.694;23.318;2023-06-14T11:40:06;94740.34;;;25.24;nan
20021;BME280;10171;42.694;23.318;2023-06-14T11:42:36;94746.25;;;25.58;nan
20021;BME280;10171;42.694;23.318;2023-06-14T11:45:03;94747.69;;;25.87;nan
20021;BME280;10171;42.694;23.318;2023-06-14T11:47:37;94742.47;;;26.06;nan
20021;BME280;10171;42.694;23.318;2023-06-14T11:50:05;94753.13;;;26.24;nan
20021;BME280;10171;42.694;23.318;2023-06-14T11:52:31;94739.66;;;26.01;nan
20021;BME280;10171;42.694;23.318;2023-06-14T11:54:57;94735.44;;;25.87;nan
20021;BME280;10171;42.694;23.318;2023-06-14T11:57:24;94731.38;;;25.65;nan
20021;BME280;10171;42.694;23.318;2023-06-14T11:59:49;94735.97;;;25.37;nan
20021;BME280;10171;42.694;23.318;2023-06-14T12:02:16;94728.66;;;25.13;nan
20021;BME280;10171;42.694;23.318;2023-06-14T12:04:48;94720.13;;;24.92;nan
20021;BME280;10171;42.694;23.318;2023-06-14T12:07:17;94717.06;;;24.76;nan
20021;BME280;10171;42.694;23.318;2023-06-14T12:12:23;94706.50;;;25.10;nan
20021;BME280;10171;42.694;23.318;2023-06-14T12:14:51;94710.31;;;25.01;nan
20021;BME280;10171;42.694;23.318;2023-06-14T12:17:16;94705.75;;;25.22;nan
20021;BME280;10171;42.694;23.318;2023-06-14T12:19:43;94701.75;;;25.65;nan
20021;BME280;10171;42.694;23.318;2023-06-14T12:22:10;94697.97;;;25.93;nan
20021;BME280;10171;42.694;23.318;2023-06-14T12:24:35;94684.41;;;26.16;nan
20021;BME280;10171;42.694;23.318;2023-06-14T12:27:01;94690.03;;;26.26;nan
20021;BME280;10171;42.694;23.318;2023-06-14T12:29:30;94697.72;;;26.14;nan
20021;BME280;10171;42.694;23.318;2023-06-14T12:31:56;94696.56;;;25.97;nan
20021;BME280;10171;42.694;23.318;2023-06-14T12:34:26;94691.94;;;25.86;nan
20021;BME280;10171;42.694;23.318;2023-06-14T12:36:53;94690.09;;;25.74;nan
20021;BME280;10171;42.694;23.318;2023-06-14T12:39:19;94672.41;;;25.43;nan
20021;BME280;10171;42.694;23.318;2023-06-14T12:41:46;94682.03;;;25.23;nan
20021;BME280;10171;42.694;23.318;2023-06-14T12:44:11;94688.00;;;25.11;nan
20021;BME280;10171;42.694;23.318;2023-06-14T12:46:37;94683.38;;;25.13;nan
20021;BME280;10171;42.694;23.318;2023-06-14T12:49:05;94678.75;;;24.96;nan
20021;BME280;10171;42.694;23.318;2023-06-14T12:51:30;94674.38;;;25.16;nan
20021;BME280;10171;42.694;23.318;2023-06-14T12:53:56;94673.19;;;25.31;nan
20021;BME280;10171;42.694;23.318;2023-06-14T12:56:21;94669.75;;;25.17;nan
20021;BME280;10171;42.694;23.318;2023-06-14T12:58:47;94665.28;;;25.12;nan
20021;BME280;10171;42.694;23.318;2023-06-14T13:01:12;94664.06;;;24.95;nan
20021;BME280;10171;42.694;23.318;2023-06-14T13:03:38;94660.78;;;24.73;nan
20021;BME280;10171;42.694;23.318;2023-06-14T13:06:03;94667.81;;;24.73;nan
20021;BME280;10171;42.694;23.318;2023-06-14T13:08:29;94676.84;;;24.70;nan
20021;BME280;10171;42.694;23.318;2023-06-14T13:10:55;94680.00;;;24.53;nan
20021;BME280;10171;42.694;23.318;2023-06-14T13:13:21;94663.72;;;24.51;nan
20021;BME280;10171;42.694;23.318;2023-06-14T13:15:49;94673.56;;;24.49;nan
20021;BME280;10171;42.694;23.318;2023-06-14T13:18:16;94670.94;;;24.49;nan
20021;BME280;10171;42.694;23.318;2023-06-14T13:20:42;94667.59;;;24.27;nan
20021;BME280;10171;42.694;23.318;2023-06-14T13:23:08;94678.47;;;24.31;nan
20021;BME280;10171;42.694;23.318;2023-06-14T13:25:34;94697.59;;;24.44;nan
20021;BME280;10171;42.694;23.318;2023-06-14T13:27:59;94705.31;;;24.18;nan
20021;BME280;10171;42.694;23.318;2023-06-14T13:30:25;94718.59;;;23.69;nan
20021;BME280;10171;42.694;23.318;2023-06-14T13:32:50;94713.59;;;23.46;nan
20021;BME280;10171;42.694;23.318;2023-06-14T13:35:18;94713.41;;;23.27;nan
20021;BME280;10171;42.694;23.318;2023-06-14T13:37:43;94703.16;;;23.04;nan
20021;BME280;10171;42.694;23.318;2023-06-14T13:40:09;94715.41;;;22.89;nan
20021;BME280;10171;42.694;23.318;2023-06-14T13:42:34;94713.50;;;22.48;nan
20021;BME280;10171;42.694;23.318;2023-06-14T13:45:01;94716.56;;;22.23;nan
20021;BME280;10171;42.694;23.318;2023-06-14T13:47:27;94699.94;;;21.80;nan
20021;BME280;10171;42.694;23.318;2023-06-14T13:49:52;94706.75;;;21.81;nan
20021;BME280;10171;42.694;23.318;2023-06-14T13:52:17;94712.34;;;21.56;nan
20021;BME280;10171;42.694;23.318;2023-06-14T13:54:43;94704.06;;;21.38;nan
20021;BME280;10171;42.694;23.318;2023-06-14T13:57:08;94712.28;;;21.27;nan
20021;BME280;10171;42.694;23.318;2023-06-14T13:59:34;94716.34;;;21.21;nan
20021;BME280;10171;42.694;23.318;2023-06-14T14:02:00;94723.06;;;21.16;nan
20021;BME280;10171;42.694;23.318;2023-06-14T14:04:25;94722.31;;;21.07;nan
20021;BME280;10171;42.694;23.318;2023-06-14T14:06:51;94734.19;;;21.24;nan
20021;BME280;10171;42.694;23.318;2023-06-14T14:09:16;94727.50;;;21.30;nan
20021;BME280;10171;42.694;23.318;2023-06-14T14:11:42;94744.38;;;21.34;nan
20021;BME280;10171;42.694;23.318;2023-06-14T14:14:08;94738.19;;;21.35;nan
20021;BME280;10171;42.694;23.318;2023-06-14T14:16:33;94743.81;;;21.24;nan
20021;BME280;10171;42.694;23.318;2023-06-14T14:19:00;94754.06;;;21.40;nan
20021;BME280;10171;42.694;23.318;2023-06-14T14:21:27;94752.97;;;21.34;nan
20021;BME280;10171;42.694;23.318;2023-06-14T14:23:52;94767.22;;;21.38;nan